CheckWX is a tool to help pilots better visualize weather data.  It is not intended as a substitute for an official pre-flight weather briefing.

21:04:03 UTC

KJES METAR
Jesup-Wayne County Airport
Jesup, Georgia, USA
Current

24 mins ago

KJES 232040Z AUTO 12007G14KT 10SM SCT046 32/18 A3019 RMK AO2
Observed
May-23 @ 20:40 UTC
Wind
  • 120° at 7 KTS
  • Gusting to 14 KTS
Visibility
10 SM
Flight Rules
VFR
Cloud Levels
  • Scattered at 4,600' AGL
Temperature
32°C / 90°F
Dewpoint
18°C / 64°F
Heat Index
33°C / 92°F
Humidity
43%
Altimeter
30.19" Hg
Pressure
1022.32 hPa
Previous

2 hours ago

KJES 231920Z AUTO 10006KT 10SM CLR 33/17 A3021 RMK AO2
Observed
May-23 @ 19:20 UTC
Wind
  • 100° at 6 KTS
Visibility
10 SM
Flight Rules
VFR
Cloud Levels
  • Clear skies
Temperature
33°C / 91°F
Dewpoint
17°C / 63°F
Humidity
38%
Altimeter
30.21" Hg
Pressure
1023.02 hPa
Previous

2 hours ago

KJES 231841Z AUTO 16006KT 10SM SCT050 33/17 A3022 RMK AO2
Observed
May-23 @ 18:41 UTC
Wind
  • 160° at 6 KTS
Visibility
10 SM
Flight Rules
VFR
Cloud Levels
  • Scattered at 5,000' AGL
Temperature
33°C / 91°F
Dewpoint
17°C / 63°F
Humidity
38%
Altimeter
30.22" Hg
Pressure
1023.42 hPa